Time;durP1;ratioP1;P1;durP2;ratioP2;P2;SDS_P1;SDS_P2;PMS_P1;PMS_P2;Temp;Humidity;BMP_temperature;BMP_pressure;BME280_temperature;BME280_humidity;BME280_pressure;Samples;Min_cycle;Max_cycle;Signal;HPM_P1;HPM_P2
2023/08/19 00:01:16;;;;;;;41.88;29.10;;;;;;;;;;5019045;28;25081;-75
2023/08/19 00:03:42;;;;;;;40.78;29.67;;;;;;;;;;5016155;28;25155;-76
2023/08/19 00:06:09;;;;;;;42.25;29.15;;;;;;;;;;5015785;28;25158;-76
2023/08/19 00:08:36;;;;;;;41.42;29.38;;;;;;;;;;5018961;28;25057;-76
2023/08/19 00:11:02;;;;;;;38.83;29.25;;;;;;;;;;5022776;28;25071;-75
2023/08/19 00:13:29;;;;;;;39.33;29.33;;;;;;;;;;5021328;28;25063;-74
2023/08/19 00:15:55;;;;;;;38.00;28.75;;;;;;;;;;5037102;28;25070;-75
2023/08/19 00:18:22;;;;;;;39.03;28.60;;;;;;;;;;5022130;28;25058;-76
2023/08/19 00:20:50;;;;;;;40.20;29.38;;;;;;;;;;5018189;28;25067;-75
2023/08/19 00:23:16;;;;;;;34.75;28.70;;;;;;;;;;5018393;28;25080;-75
2023/08/19 00:25:43;;;;;;;37.70;28.77;;;;;;;;;;5013312;28;25049;-76
2023/08/19 00:28:09;;;;;;;34.47;27.80;;;;;;;;;;5017279;28;25089;-74
2023/08/19 00:30:35;;;;;;;40.28;28.60;;;;;;;;;;5016076;28;25085;-75
2023/08/19 00:33:01;;;;;;;38.53;28.35;;;;;;;;;;5013731;28;25069;-75
2023/08/19 00:35:27;;;;;;;37.63;27.83;;;;;;;;;;5015879;28;25062;-74
2023/08/19 00:37:53;;;;;;;36.22;27.38;;;;;;;;;;5007334;28;25140;-75
2023/08/19 00:40:19;;;;;;;36.25;28.08;;;;;;;;;;5014392;28;25070;-74
2023/08/19 00:42:45;;;;;;;37.35;27.23;;;;;;;;;;5004386;28;25075;-74
2023/08/19 00:45:11;;;;;;;37.22;26.92;;;;;;;;;;5008481;28;25049;-75
2023/08/19 00:47:38;;;;;;;35.70;27.90;;;;;;;;;;5021678;28;25062;-74
2023/08/19 00:50:05;;;;;;;35.10;27.88;;;;;;;;;;5008247;28;25080;-74
2023/08/19 00:52:31;;;;;;;35.53;25.40;;;;;;;;;;5023965;28;25072;-74
2023/08/19 00:54:57;;;;;;;34.10;27.02;;;;;;;;;;5023404;28;25101;-73
2023/08/19 00:57:23;;;;;;;36.65;27.58;;;;;;;;;;5007149;28;25077;-73
2023/08/19 00:59:49;;;;;;;34.88;26.92;;;;;;;;;;5015282;28;25088;-74
2023/08/19 01:02:15;;;;;;;37.10;28.02;;;;;;;;;;5013183;28;25070;-74
2023/08/19 01:04:41;;;;;;;38.55;28.33;;;;;;;;;;5011996;28;25074;-74
2023/08/19 01:07:28;;;;;;;33.72;27.40;;;;;;;;;;5013930;28;25051;-73
2023/08/19 01:09:54;;;;;;;34.80;27.13;;;;;;;;;;5005983;28;25054;-74
2023/08/19 01:12:34;;;;;;;33.13;26.30;;;;;;;;;;5012087;28;25161;-75
2023/08/19 01:15:06;;;;;;;35.40;26.00;;;;;;;;;;5012812;28;25114;-74
2023/08/19 01:17:32;;;;;;;37.25;28.27;;;;;;;;;;5017851;28;25053;-77
2023/08/19 01:19:59;;;;;;;36.47;26.77;;;;;;;;;;5018543;28;25113;-72
2023/08/19 01:22:40;;;;;;;38.10;27.50;;;;;;;;;;5015644;28;25128;-75
2023/08/19 01:25:06;;;;;;;33.65;25.67;;;;;;;;;;5011405;28;25116;-73
2023/08/19 01:27:32;;;;;;;33.00;27.10;;;;;;;;;;5009598;28;25097;-74
2023/08/19 01:29:58;;;;;;;37.50;27.45;;;;;;;;;;5014374;28;25056;-74
2023/08/19 01:32:25;;;;;;;34.72;26.67;;;;;;;;;;5011898;28;25123;-75
2023/08/19 01:34:51;;;;;;;32.22;24.92;;;;;;;;;;5015997;28;25062;-76
2023/08/19 01:37:27;;;;;;;37.60;27.80;;;;;;;;;;5002920;28;25111;-74
2023/08/19 01:39:55;;;;;;;38.70;27.05;;;;;;;;;;5006302;28;25062;-73
2023/08/19 01:42:22;;;;;;;37.90;27.80;;;;;;;;;;5019765;28;25068;-75
2023/08/19 01:44:48;;;;;;;35.30;26.15;;;;;;;;;;5012709;28;25069;-72
2023/08/19 01:47:18;;;;;;;35.92;26.80;;;;;;;;;;5006663;28;25068;-76
2023/08/19 01:49:44;;;;;;;34.38;26.73;;;;;;;;;;5007290;28;25045;-76
2023/08/19 01:52:12;;;;;;;36.70;27.73;;;;;;;;;;5012203;28;25080;-75
2023/08/19 01:54:38;;;;;;;33.13;24.85;;;;;;;;;;5015658;28;25061;-76
2023/08/19 01:57:04;;;;;;;35.45;26.88;;;;;;;;;;5010413;28;25058;-74
2023/08/19 01:59:30;;;;;;;36.95;27.45;;;;;;;;;;5018398;28;25048;-77
2023/08/19 02:01:56;;;;;;;36.53;26.92;;;;;;;;;;5011504;28;25063;-75
2023/08/19 02:04:22;;;;;;;36.22;27.20;;;;;;;;;;5013995;28;25107;-76
2023/08/19 02:06:48;;;;;;;33.88;27.15;;;;;;;;;;5013678;28;25133;-76
2023/08/19 02:09:14;;;;;;;34.72;27.80;;;;;;;;;;5009974;28;25078;-74
2023/08/19 02:11:40;;;;;;;31.17;25.58;;;;;;;;;;5020663;28;25096;-76
2023/08/19 02:14:06;;;;;;;33.35;25.88;;;;;;;;;;5005605;28;25067;-74
2023/08/19 02:16:31;;;;;;;35.10;26.38;;;;;;;;;;5006369;28;25086;-77
2023/08/19 02:18:58;;;;;;;32.88;26.40;;;;;;;;;;5004171;28;25074;-75
2023/08/19 02:21:24;;;;;;;30.25;24.95;;;;;;;;;;5016162;28;26230;-76
2023/08/19 02:23:50;;;;;;;31.73;25.58;;;;;;;;;;5018586;28;25090;-76
2023/08/19 02:26:16;;;;;;;33.75;25.67;;;;;;;;;;5010207;28;25128;-76
2023/08/19 02:28:43;;;;;;;37.08;25.40;;;;;;;;;;5019267;28;25064;-74
2023/08/19 02:31:09;;;;;;;38.28;27.77;;;;;;;;;;5024572;28;25078;-75
2023/08/19 02:33:36;;;;;;;37.92;26.23;;;;;;;;;;5027067;28;25087;-75
2023/08/19 02:36:02;;;;;;;43.90;28.63;;;;;;;;;;5006958;28;25086;-76
2023/08/19 02:38:28;;;;;;;33.15;26.83;;;;;;;;;;5009323;28;25129;-77
2023/08/19 02:40:54;;;;;;;33.72;26.25;;;;;;;;;;5009025;28;25091;-76
2023/08/19 02:43:20;;;;;;;34.78;27.25;;;;;;;;;;5001031;28;25080;-75
2023/08/19 02:45:47;;;;;;;33.88;25.45;;;;;;;;;;5013162;28;25053;-75
2023/08/19 02:48:14;;;;;;;34.58;27.77;;;;;;;;;;5008109;28;25143;-75
2023/08/19 02:50:39;;;;;;;37.00;26.55;;;;;;;;;;5011848;28;25106;-75
2023/08/19 02:53:05;;;;;;;35.22;26.65;;;;;;;;;;5009552;28;25086;-74
2023/08/19 02:55:31;;;;;;;37.97;26.00;;;;;;;;;;5018197;28;25059;-76
2023/08/19 02:57:57;;;;;;;30.60;25.20;;;;;;;;;;5009928;28;25054;-76
2023/08/19 03:00:23;;;;;;;38.40;26.92;;;;;;;;;;5006894;28;25162;-76
2023/08/19 03:02:49;;;;;;;35.78;26.02;;;;;;;;;;5014224;28;25048;-73
2023/08/19 03:05:16;;;;;;;31.65;24.58;;;;;;;;;;5017512;28;25065;-75
2023/08/19 03:07:42;;;;;;;33.67;26.10;;;;;;;;;;5012736;28;25125;-75
2023/08/19 03:10:08;;;;;;;31.63;24.60;;;;;;;;;;5013010;28;25059;-74
2023/08/19 03:12:34;;;;;;;36.10;25.30;;;;;;;;;;5015444;28;25077;-73
2023/08/19 03:15:00;;;;;;;30.10;25.30;;;;;;;;;;5022048;28;25128;-74
2023/08/19 03:17:26;;;;;;;36.65;25.90;;;;;;;;;;5014786;28;25057;-76
2023/08/19 03:19:52;;;;;;;34.90;26.33;;;;;;;;;;5006288;28;25055;-77
2023/08/19 03:22:18;;;;;;;33.35;26.00;;;;;;;;;;5015704;28;25048;-76
2023/08/19 03:24:44;;;;;;;33.70;25.23;;;;;;;;;;5014370;28;25098;-76
2023/08/19 03:27:10;;;;;;;33.45;24.52;;;;;;;;;;5018410;28;25084;-74
2023/08/19 03:29:36;;;;;;;32.60;25.42;;;;;;;;;;5005799;28;25090;-76
2023/08/19 03:32:02;;;;;;;32.92;26.20;;;;;;;;;;5015107;28;25081;-75
2023/08/19 03:34:28;;;;;;;31.20;24.55;;;;;;;;;;5011322;28;25063;-76
2023/08/19 03:36:54;;;;;;;32.75;25.02;;;;;;;;;;5022127;28;25082;-76
2023/08/19 03:39:20;;;;;;;31.35;23.98;;;;;;;;;;5025632;28;25076;-75
2023/08/19 03:41:46;;;;;;;33.65;25.63;;;;;;;;;;5013140;28;25063;-76
2023/08/19 03:44:12;;;;;;;33.10;25.08;;;;;;;;;;5011911;28;25074;-76
2023/08/19 03:46:39;;;;;;;30.92;25.73;;;;;;;;;;5010749;28;25145;-75
2023/08/19 03:49:05;;;;;;;34.92;24.98;;;;;;;;;;5020643;28;25073;-75
2023/08/19 03:51:31;;;;;;;35.03;26.13;;;;;;;;;;5006341;28;25084;-77
2023/08/19 03:53:57;;;;;;;35.90;24.77;;;;;;;;;;5014032;28;25069;-76
2023/08/19 03:56:23;;;;;;;31.23;24.65;;;;;;;;;;5016986;28;25085;-74
2023/08/19 03:58:49;;;;;;;30.30;22.52;;;;;;;;;;5011448;28;25072;-74
2023/08/19 04:01:15;;;;;;;30.88;24.08;;;;;;;;;;5015383;28;25069;-72
2023/08/19 04:03:41;;;;;;;31.20;23.30;;;;;;;;;;5016375;28;25138;-70
2023/08/19 04:06:07;;;;;;;32.22;23.23;;;;;;;;;;5012054;28;25073;-72
2023/08/19 04:08:33;;;;;;;37.60;25.88;;;;;;;;;;5017427;28;25076;-74
2023/08/19 04:11:06;;;;;;;44.78;28.73;;;;;;;;;;5012357;28;24973;-75
2023/08/19 04:13:32;;;;;;;39.25;26.65;;;;;;;;;;5003853;28;25051;-75
2023/08/19 04:16:05;;;;;;;42.10;27.10;;;;;;;;;;5004565;28;25070;-74
2023/08/19 04:18:31;;;;;;;34.33;25.25;;;;;;;;;;5025847;28;25150;-73
2023/08/19 04:20:57;;;;;;;36.00;26.13;;;;;;;;;;5011967;28;25064;-73
2023/08/19 04:23:23;;;;;;;32.45;22.95;;;;;;;;;;5012195;28;25127;-76
2023/08/19 04:25:49;;;;;;;40.80;25.42;;;;;;;;;;5012630;28;25064;-75
2023/08/19 04:28:15;;;;;;;34.00;25.63;;;;;;;;;;5009787;28;25076;-74
2023/08/19 04:30:41;;;;;;;34.97;25.60;;;;;;;;;;5011701;28;25057;-75
2023/08/19 04:33:07;;;;;;;37.10;26.50;;;;;;;;;;5000853;28;25085;-75
2023/08/19 04:35:33;;;;;;;33.33;26.35;;;;;;;;;;5011872;28;25079;-76
2023/08/19 04:37:59;;;;;;;31.45;25.23;;;;;;;;;;5006025;28;25065;-75
2023/08/19 04:40:25;;;;;;;33.10;24.95;;;;;;;;;;5015236;28;25097;-76
2023/08/19 04:42:51;;;;;;;35.47;25.38;;;;;;;;;;5014054;28;25053;-75
2023/08/19 04:45:17;;;;;;;32.15;24.42;;;;;;;;;;5013087;28;25068;-74
2023/08/19 04:47:43;;;;;;;32.25;23.63;;;;;;;;;;5009548;28;25077;-77
2023/08/19 04:50:10;;;;;;;30.23;24.10;;;;;;;;;;5000052;28;25074;-75
2023/08/19 04:52:37;;;;;;;31.02;23.27;;;;;;;;;;4999211;28;25168;-76
2023/08/19 04:55:04;;;;;;;32.33;23.80;;;;;;;;;;5007531;28;25058;-78
2023/08/19 04:57:30;;;;;;;30.90;22.02;;;;;;;;;;4992621;28;25046;-75
2023/08/19 04:59:56;;;;;;;30.75;21.70;;;;;;;;;;5013726;28;25076;-74
2023/08/19 05:02:22;;;;;;;29.63;21.60;;;;;;;;;;5008544;28;25091;-77
2023/08/19 05:04:48;;;;;;;22.58;20.17;;;;;;;;;;5002425;28;25047;-77
2023/08/19 05:07:14;;;;;;;33.70;21.50;;;;;;;;;;5001299;28;25184;-74
2023/08/19 05:09:40;;;;;;;27.77;22.13;;;;;;;;;;5012738;28;25082;-74
2023/08/19 05:12:06;;;;;;;29.35;21.25;;;;;;;;;;5006941;28;25062;-75
2023/08/19 05:14:32;;;;;;;27.23;21.15;;;;;;;;;;5010470;28;25070;-77
2023/08/19 05:16:58;;;;;;;30.88;22.33;;;;;;;;;;5010353;28;25074;-76
2023/08/19 05:19:25;;;;;;;26.83;20.90;;;;;;;;;;5008565;28;25060;-75
2023/08/19 05:21:51;;;;;;;23.88;20.38;;;;;;;;;;5008922;28;25136;-75
2023/08/19 05:24:18;;;;;;;25.50;21.17;;;;;;;;;;5008644;28;25063;-75
2023/08/19 05:26:46;;;;;;;26.42;20.67;;;;;;;;;;5009844;28;25051;-74
2023/08/19 05:29:12;;;;;;;25.85;19.48;;;;;;;;;;5013794;28;25142;-76
2023/08/19 05:31:38;;;;;;;25.42;20.35;;;;;;;;;;5008288;28;25126;-75
2023/08/19 05:34:04;;;;;;;29.38;21.17;;;;;;;;;;5010399;28;25054;-75
2023/08/19 05:36:30;;;;;;;30.58;20.33;;;;;;;;;;5014753;28;25090;-75
2023/08/19 05:38:56;;;;;;;28.45;20.17;;;;;;;;;;5015997;28;25119;-76
2023/08/19 05:41:22;;;;;;;21.88;18.48;;;;;;;;;;5008814;28;25146;-75
2023/08/19 05:43:48;;;;;;;25.50;19.88;;;;;;;;;;5012880;28;25078;-75
2023/08/19 05:46:14;;;;;;;27.98;20.08;;;;;;;;;;5013368;28;25055;-76
2023/08/19 05:48:40;;;;;;;25.60;18.67;;;;;;;;;;5012617;28;25137;-76
2023/08/19 05:51:06;;;;;;;24.17;18.80;;;;;;;;;;5006678;28;25157;-75
2023/08/19 05:53:32;;;;;;;24.50;18.23;;;;;;;;;;5010416;28;25138;-77
2023/08/19 05:55:58;;;;;;;23.88;18.38;;;;;;;;;;5006455;28;25059;-74
2023/08/19 05:58:24;;;;;;;21.80;18.17;;;;;;;;;;5008738;28;25078;-76
2023/08/19 06:00:57;;;;;;;24.83;17.30;;;;;;;;;;5001382;28;25081;-77
2023/08/19 06:03:23;;;;;;;22.73;17.52;;;;;;;;;;5009153;28;25072;-76
2023/08/19 06:05:49;;;;;;;23.15;16.20;;;;;;;;;;5013527;28;25050;-77
2023/08/19 06:08:15;;;;;;;22.38;16.75;;;;;;;;;;5012194;28;25049;-75
2023/08/19 06:10:44;;;;;;;19.80;15.63;;;;;;;;;;5013420;28;25052;-75
2023/08/19 06:13:10;;;;;;;19.25;14.88;;;;;;;;;;5011947;28;25075;-76
2023/08/19 06:15:36;;;;;;;18.98;16.70;;;;;;;;;;5008540;28;25071;-76
2023/08/19 06:18:02;;;;;;;22.58;17.60;;;;;;;;;;5015744;28;25054;-75
2023/08/19 06:20:28;;;;;;;16.80;14.15;;;;;;;;;;5022414;28;25078;-75
2023/08/19 06:22:54;;;;;;;23.63;16.98;;;;;;;;;;5011581;28;25130;-77
2023/08/19 06:25:20;;;;;;;20.35;15.90;;;;;;;;;;5010725;28;25059;-77
2023/08/19 06:27:46;;;;;;;19.58;17.02;;;;;;;;;;5004069;28;25063;-76
2023/08/19 06:30:13;;;;;;;19.98;16.23;;;;;;;;;;5001020;28;25069;-76
2023/08/19 06:32:39;;;;;;;20.08;16.67;;;;;;;;;;5020224;28;25066;-76
2023/08/19 06:35:05;;;;;;;22.48;15.95;;;;;;;;;;5018302;28;25051;-74
2023/08/19 06:37:32;;;;;;;21.33;15.70;;;;;;;;;;5012180;28;25080;-76
2023/08/19 06:40:07;;;;;;;20.63;16.98;;;;;;;;;;5037468;28;25070;-75
2023/08/19 06:42:35;;;;;;;20.48;17.38;;;;;;;;;;5023642;28;25070;-75
2023/08/19 06:45:01;;;;;;;25.90;17.58;;;;;;;;;;5029253;28;25063;-77
2023/08/19 06:47:31;;;;;;;20.92;17.35;;;;;;;;;;5024266;28;25107;-76
2023/08/19 06:49:58;;;;;;;18.90;16.65;;;;;;;;;;5017119;28;25062;-75
2023/08/19 06:52:24;;;;;;;20.00;17.15;;;;;;;;;;5019983;28;25052;-76
2023/08/19 06:54:52;;;;;;;22.52;16.58;;;;;;;;;;5026931;28;25051;-75
2023/08/19 06:57:24;;;;;;;20.42;17.70;;;;;;;;;;5016386;28;25081;-75
2023/08/19 06:59:51;;;;;;;21.92;15.85;;;;;;;;;;5018072;28;25072;-74
2023/08/19 07:02:18;;;;;;;23.52;17.33;;;;;;;;;;5007025;28;25079;-77
2023/08/19 07:04:45;;;;;;;25.05;17.33;;;;;;;;;;5032659;28;25055;-80
2023/08/19 07:07:12;;;;;;;20.45;16.95;;;;;;;;;;5032643;28;25058;-77
2023/08/19 07:09:38;;;;;;;21.65;17.25;;;;;;;;;;5022156;28;25071;-79
2023/08/19 07:12:04;;;;;;;24.25;17.80;;;;;;;;;;5012541;28;25145;-76
2023/08/19 07:14:31;;;;;;;21.98;16.58;;;;;;;;;;5019208;28;25057;-77
2023/08/19 07:16:59;;;;;;;17.92;15.38;;;;;;;;;;5018211;28;25066;-78
2023/08/19 07:19:38;;;;;;;21.92;16.40;;;;;;;;;;5009367;28;25128;-78
2023/08/19 07:22:05;;;;;;;20.75;15.35;;;;;;;;;;5012445;28;25118;-76
2023/08/19 07:24:31;;;;;;;18.67;15.85;;;;;;;;;;5030182;28;25131;-77
2023/08/19 07:27:01;;;;;;;21.88;16.25;;;;;;;;;;5032878;28;25062;-78
2023/08/19 07:29:27;;;;;;;21.08;14.88;;;;;;;;;;5030161;28;25049;-75
2023/08/19 07:31:53;;;;;;;16.45;14.40;;;;;;;;;;5014103;28;25062;-78
2023/08/19 07:34:19;;;;;;;22.48;15.70;;;;;;;;;;5019995;28;25046;-77
2023/08/19 07:36:45;;;;;;;17.88;13.88;;;;;;;;;;5022239;28;25073;-77
2023/08/19 07:39:11;;;;;;;17.08;14.05;;;;;;;;;;5040698;28;25080;-77
2023/08/19 07:41:39;;;;;;;15.82;13.63;;;;;;;;;;5018218;28;25067;-78
2023/08/19 07:44:05;;;;;;;18.67;13.48;;;;;;;;;;5014106;28;25074;-75
2023/08/19 07:46:32;;;;;;;17.00;13.15;;;;;;;;;;5020000;28;25062;-78
2023/08/19 07:48:58;;;;;;;20.88;12.73;;;;;;;;;;5016765;28;25085;-78
2023/08/19 07:51:24;;;;;;;22.40;12.82;;;;;;;;;;5019029;28;25062;-78
2023/08/19 07:53:50;;;;;;;17.30;12.80;;;;;;;;;;5030325;28;25094;-78
2023/08/19 07:56:17;;;;;;;19.08;13.38;;;;;;;;;;5025726;28;25090;-77
2023/08/19 07:58:43;;;;;;;18.30;13.48;;;;;;;;;;5017570;28;25101;-78
2023/08/19 08:01:10;;;;;;;16.90;12.18;;;;;;;;;;5019312;28;25072;-77
2023/08/19 08:03:38;;;;;;;18.05;13.02;;;;;;;;;;5014961;28;25053;-76
2023/08/19 08:06:04;;;;;;;16.33;12.55;;;;;;;;;;5016100;28;25087;-75
2023/08/19 08:08:30;;;;;;;17.05;13.38;;;;;;;;;;5011691;28;25086;-76
2023/08/19 08:10:56;;;;;;;16.50;12.30;;;;;;;;;;5017056;28;25048;-76
2023/08/19 08:13:22;;;;;;;19.48;14.10;;;;;;;;;;5016181;28;25143;-77
2023/08/19 08:15:48;;;;;;;17.27;14.20;;;;;;;;;;5013804;28;25075;-78
2023/08/19 08:18:14;;;;;;;17.90;13.88;;;;;;;;;;5012361;28;25075;-77
2023/08/19 08:20:41;;;;;;;20.50;14.57;;;;;;;;;;5011536;28;25066;-75
2023/08/19 08:23:07;;;;;;;23.50;16.13;;;;;;;;;;5012321;28;25175;-74
2023/08/19 08:25:33;;;;;;;20.40;15.57;;;;;;;;;;5011728;28;25156;-77
2023/08/19 08:27:59;;;;;;;26.77;18.08;;;;;;;;;;5016562;28;25058;-76
2023/08/19 08:30:25;;;;;;;26.08;18.48;;;;;;;;;;5015362;28;25066;-77
2023/08/19 08:32:54;;;;;;;24.48;16.88;;;;;;;;;;5015002;28;25103;-77
2023/08/19 08:35:20;;;;;;;22.48;16.40;;;;;;;;;;5023200;28;25076;-78
2023/08/19 08:37:46;;;;;;;19.08;15.43;;;;;;;;;;5015254;28;25065;-76
2023/08/19 08:40:13;;;;;;;21.15;15.65;;;;;;;;;;5015011;28;25076;-77
2023/08/19 08:42:40;;;;;;;23.83;16.27;;;;;;;;;;5021440;28;25063;-77
2023/08/19 08:45:06;;;;;;;18.98;14.63;;;;;;;;;;5017910;28;25084;-75
2023/08/19 08:47:33;;;;;;;18.98;12.98;;;;;;;;;;5018056;28;25060;-76
2023/08/19 08:49:59;;;;;;;15.43;12.95;;;;;;;;;;5019170;28;25077;-78
2023/08/19 08:52:25;;;;;;;18.45;12.48;;;;;;;;;;5021550;28;25074;-78
2023/08/19 08:54:52;;;;;;;14.30;12.30;;;;;;;;;;5020846;28;25065;-78
2023/08/19 08:57:18;;;;;;;14.50;10.32;;;;;;;;;;5025122;28;25106;-78
2023/08/19 08:59:44;;;;;;;11.88;9.48;;;;;;;;;;5013831;28;25075;-76
2023/08/19 09:02:13;;;;;;;11.80;8.77;;;;;;;;;;5017782;28;25065;-78
2023/08/19 09:04:41;;;;;;;12.43;8.68;;;;;;;;;;5018017;28;25056;-78
2023/08/19 09:07:12;;;;;;;12.60;8.35;;;;;;;;;;5019439;28;25070;-74
2023/08/19 09:09:38;;;;;;;;;;;;;;;;;;5021524;28;25089;-78
2023/08/19 09:12:09;;;;;;;11.18;8.02;;;;;;;;;;5027187;28;25158;-74
2023/08/19 09:14:42;;;;;;;10.95;7.28;;;;;;;;;;5021924;28;25074;-74
2023/08/19 09:17:08;;;;;;;11.60;7.68;;;;;;;;;;5013986;28;25056;-75
2023/08/19 09:19:35;;;;;;;14.82;7.57;;;;;;;;;;5022352;28;25074;-77
2023/08/19 09:22:20;;;;;;;11.18;7.53;;;;;;;;;;5019213;28;25055;-77
2023/08/19 09:24:46;;;;;;;10.68;7.07;;;;;;;;;;5026042;28;25079;-76
2023/08/19 09:27:14;;;;;;;8.68;5.70;;;;;;;;;;5024960;28;25069;-77
2023/08/19 09:29:53;;;;;;;10.27;5.57;;;;;;;;;;5012841;28;25067;-78
2023/08/19 09:32:29;;;;;;;6.88;4.70;;;;;;;;;;5010194;28;25048;-76
2023/08/19 09:35:00;;;;;;;5.38;4.22;;;;;;;;;;5027439;28;25064;-79
2023/08/19 09:37:26;;;;;;;4.65;3.65;;;;;;;;;;5012295;28;25145;-76
2023/08/19 09:39:52;;;;;;;7.75;4.07;;;;;;;;;;5023339;28;25091;-73
2023/08/19 09:42:19;;;;;;;6.72;4.00;;;;;;;;;;5014811;28;25049;-77
2023/08/19 09:44:45;;;;;;;7.10;4.07;;;;;;;;;;5013502;28;25068;-79
2023/08/19 09:47:11;;;;;;;8.45;5.43;;;;;;;;;;5012392;28;25106;-79
2023/08/19 09:49:37;;;;;;;6.43;5.07;;;;;;;;;;5014436;28;25087;-77
2023/08/19 09:52:03;;;;;;;9.02;5.90;;;;;;;;;;5017027;28;25059;-77
2023/08/19 09:54:29;;;;;;;7.68;6.00;;;;;;;;;;5007711;28;25058;-77
2023/08/19 09:56:56;;;;;;;11.13;6.68;;;;;;;;;;5014017;28;25103;-79
2023/08/19 09:59:23;;;;;;;10.50;6.68;;;;;;;;;;5018974;28;25079;-74
2023/08/19 10:01:51;;;;;;;10.30;7.00;;;;;;;;;;5025066;28;25050;-78
2023/08/19 10:04:17;;;;;;;9.63;6.78;;;;;;;;;;5018515;28;25068;-78
2023/08/19 10:06:46;;;;;;;11.18;7.10;;;;;;;;;;5022010;28;25066;-76
2023/08/19 10:09:15;;;;;;;10.68;6.50;;;;;;;;;;5024002;28;25078;-77
2023/08/19 10:11:43;;;;;;;11.57;6.88;;;;;;;;;;5015197;28;25075;-77
2023/08/19 10:14:09;;;;;;;13.13;8.75;;;;;;;;;;5014269;28;25070;-76
2023/08/19 10:16:44;;;;;;;13.60;9.10;;;;;;;;;;5024954;28;25155;-74
2023/08/19 10:19:13;;;;;;;16.00;9.20;;;;;;;;;;5018585;28;25070;-77
2023/08/19 10:21:40;;;;;;;14.05;8.82;;;;;;;;;;5025183;28;25077;-76
2023/08/19 10:24:06;;;;;;;16.02;10.38;;;;;;;;;;5025541;28;25161;-75
2023/08/19 10:26:33;;;;;;;16.17;10.45;;;;;;;;;;5018264;28;25093;-77
2023/08/19 10:29:03;;;;;;;19.00;9.68;;;;;;;;;;5007299;28;25092;-76
2023/08/19 10:31:30;;;;;;;15.93;10.60;;;;;;;;;;5018200;28;25086;-78
2023/08/19 10:33:56;;;;;;;18.35;10.27;;;;;;;;;;5001996;28;25100;-78
2023/08/19 10:36:26;;;;;;;21.60;10.38;;;;;;;;;;5020956;28;25154;-78
2023/08/19 10:39:02;;;;;;;18.65;10.30;;;;;;;;;;5015101;28;25162;-78
2023/08/19 10:41:29;;;;;;;13.98;9.65;;;;;;;;;;5018019;28;25064;-75
2023/08/19 10:44:03;;;;;;;16.05;10.23;;;;;;;;;;5012817;28;25081;-77
2023/08/19 10:46:33;;;;;;;20.48;10.57;;;;;;;;;;5022457;28;25081;-76
2023/08/19 10:48:59;;;;;;;19.67;8.73;;;;;;;;;;5011312;28;25094;-76
2023/08/19 10:52:05;;;;;;;14.00;8.07;;;;;;;;;;5021381;28;25080;-77
2023/08/19 10:54:35;;;;;;;10.95;6.78;;;;;;;;;;5002344;28;25063;-77
2023/08/19 10:57:10;;;;;;;8.30;5.80;;;;;;;;;;5002388;28;25107;-77
2023/08/19 10:59:36;;;;;;;13.70;6.68;;;;;;;;;;5014379;28;25068;-78
2023/08/19 11:02:04;;;;;;;11.75;6.95;;;;;;;;;;5021472;28;25068;-77
2023/08/19 11:04:30;;;;;;;13.50;7.00;;;;;;;;;;5022795;28;25063;-78
2023/08/19 11:06:57;;;;;;;15.40;6.85;;;;;;;;;;5018037;28;25080;-77
2023/08/19 11:09:29;;;;;;;12.00;6.40;;;;;;;;;;5008644;28;25059;-77
2023/08/19 11:11:58;;;;;;;13.32;6.32;;;;;;;;;;5028099;28;25091;-76
2023/08/19 11:14:24;;;;;;;12.00;5.95;;;;;;;;;;5017565;28;25074;-76
2023/08/19 11:16:51;;;;;;;12.25;4.88;;;;;;;;;;5010072;28;25072;-76
2023/08/19 11:19:17;;;;;;;16.13;4.50;;;;;;;;;;5016746;28;25091;-75
2023/08/19 11:21:44;;;;;;;10.30;3.42;;;;;;;;;;5022131;28;25059;-75
2023/08/19 11:24:11;;;;;;;6.57;2.63;;;;;;;;;;5017094;28;25064;-77
2023/08/19 11:26:37;;;;;;;4.53;2.40;;;;;;;;;;5016612;28;25075;-77
2023/08/19 11:29:04;;;;;;;9.23;2.28;;;;;;;;;;5019340;28;25066;-77
2023/08/19 11:31:30;;;;;;;7.47;2.08;;;;;;;;;;5022931;28;25074;-76
2023/08/19 11:33:56;;;;;;;5.30;2.17;;;;;;;;;;5021983;28;25091;-80
2023/08/19 11:36:26;;;;;;;4.68;1.38;;;;;;;;;;5026808;28;25094;-79
2023/08/19 11:38:58;;;;;;;6.50;1.50;;;;;;;;;;5024818;28;25057;-75
2023/08/19 11:41:24;;;;;;;6.47;1.60;;;;;;;;;;5008327;28;25056;-75
2023/08/19 11:43:53;;;;;;;8.70;2.70;;;;;;;;;;5016769;28;25059;-77
2023/08/19 11:46:19;;;;;;;9.25;1.40;;;;;;;;;;5022636;28;25059;-76
2023/08/19 11:48:45;;;;;;;2.70;1.35;;;;;;;;;;5025148;28;25075;-76
2023/08/19 11:51:12;;;;;;;4.95;1.40;;;;;;;;;;5032210;28;25083;-75
2023/08/19 11:53:38;;;;;;;5.68;1.40;;;;;;;;;;5008615;28;25074;-75
2023/08/19 11:56:04;;;;;;;6.78;1.42;;;;;;;;;;5016246;28;25099;-78
2023/08/19 11:58:52;;;;;;;7.38;1.40;;;;;;;;;;5021722;28;25051;-75
2023/08/19 12:01:18;;;;;;;8.52;1.90;;;;;;;;;;5028616;28;25066;-76
2023/08/19 12:03:45;;;;;;;8.10;1.88;;;;;;;;;;5017670;28;25064;-76
2023/08/19 12:06:11;;;;;;;3.85;1.10;;;;;;;;;;5027454;28;25075;-76
2023/08/19 12:08:39;;;;;;;6.35;1.63;;;;;;;;;;5031231;28;25074;-78
2023/08/19 12:11:05;;;;;;;8.35;1.65;;;;;;;;;;5026593;28;25057;-76
2023/08/19 12:13:32;;;;;;;6.75;1.60;;;;;;;;;;5013857;28;25058;-73
2023/08/19 12:15:58;;;;;;;9.40;1.73;;;;;;;;;;5021251;28;25144;-74
2023/08/19 12:18:24;;;;;;;9.75;1.65;;;;;;;;;;5013542;28;25068;-75
2023/08/19 12:20:50;;;;;;;7.28;1.95;;;;;;;;;;5030193;28;25099;-75
2023/08/19 12:23:16;;;;;;;12.73;2.38;;;;;;;;;;5002903;28;25108;-76
2023/08/19 12:25:48;;;;;;;8.00;2.00;;;;;;;;;;5009560;28;25055;-78
2023/08/19 12:28:14;;;;;;;;;;;;;;;;;;5019339;28;25064;-79
2023/08/19 12:30:40;;;;;;;12.02;2.17;;;;;;;;;;5017836;28;24080;-75
2023/08/19 12:33:06;;;;;;;13.82;2.35;;;;;;;;;;5025365;28;25055;-75
2023/08/19 12:35:32;;;;;;;8.65;2.00;;;;;;;;;;5026491;28;25070;-77
2023/08/19 12:37:58;;;;;;;10.73;2.90;;;;;;;;;;5008973;28;25060;-77
2023/08/19 12:40:24;;;;;;;10.40;1.92;;;;;;;;;;5015271;28;25077;-77
2023/08/19 12:42:52;;;;;;;11.77;2.67;;;;;;;;;;5017494;28;25059;-76
2023/08/19 12:45:18;;;;;;;10.18;2.33;;;;;;;;;;5020870;28;25052;-77
2023/08/19 12:47:47;;;;;;;10.90;2.42;;;;;;;;;;5016806;28;25070;-77
2023/08/19 12:50:15;;;;;;;9.43;2.80;;;;;;;;;;5005683;28;25147;-77
2023/08/19 12:52:42;;;;;;;6.85;2.33;;;;;;;;;;5021567;28;25107;-77
2023/08/19 12:55:08;;;;;;;12.05;2.80;;;;;;;;;;5021948;28;25077;-76
2023/08/19 12:57:34;;;;;;;9.43;1.80;;;;;;;;;;5029231;28;25128;-76
2023/08/19 13:00:00;;;;;;;10.43;2.33;;;;;;;;;;5021421;28;24934;-75
2023/08/19 13:02:26;;;;;;;12.45;2.50;;;;;;;;;;5025725;28;25178;-76
2023/08/19 13:04:52;;;;;;;19.20;3.13;;;;;;;;;;5027604;28;25073;-78
2023/08/19 13:07:18;;;;;;;9.80;2.50;;;;;;;;;;5025634;28;25078;-73
2023/08/19 13:09:44;;;;;;;20.20;2.92;;;;;;;;;;5039784;28;25053;-78
2023/08/19 13:12:10;;;;;;;13.52;2.47;;;;;;;;;;5037530;28;25077;-78
2023/08/19 13:14:36;;;;;;;16.63;3.15;;;;;;;;;;5028608;28;25050;-78
2023/08/19 13:17:02;;;;;;;15.57;2.70;;;;;;;;;;5024879;28;25059;-77
2023/08/19 13:19:28;;;;;;;11.15;2.90;;;;;;;;;;5020433;28;25052;-77
2023/08/19 13:21:54;;;;;;;13.70;2.47;;;;;;;;;;5018871;28;25151;-78
2023/08/19 13:24:20;;;;;;;12.05;2.65;;;;;;;;;;5004923;28;25173;-76
2023/08/19 13:26:46;;;;;;;14.13;2.97;;;;;;;;;;5001115;28;25085;-77
2023/08/19 13:29:12;;;;;;;13.23;3.00;;;;;;;;;;5012537;28;25083;-75
2023/08/19 13:31:38;;;;;;;9.13;2.20;;;;;;;;;;5018952;28;25060;-75
2023/08/19 13:34:04;;;;;;;16.52;2.85;;;;;;;;;;5011864;28;25070;-74
2023/08/19 13:36:30;;;;;;;15.93;2.97;;;;;;;;;;5011815;28;25107;-79
2023/08/19 13:38:57;;;;;;;14.77;2.85;;;;;;;;;;5010457;28;25139;-75
2023/08/19 13:41:23;;;;;;;15.98;3.50;;;;;;;;;;5023403;28;25041;-77
2023/08/19 13:43:49;;;;;;;18.08;3.40;;;;;;;;;;5017908;28;25066;-75
2023/08/19 13:46:15;;;;;;;13.27;3.50;;;;;;;;;;5027952;28;25058;-78
2023/08/19 13:48:41;;;;;;;20.40;4.22;;;;;;;;;;5031018;28;25081;-77
2023/08/19 13:51:06;;;;;;;16.38;3.30;;;;;;;;;;5019901;28;25061;-78
2023/08/19 13:53:33;;;;;;;12.95;2.85;;;;;;;;;;5009591;28;25068;-77
2023/08/19 13:55:59;;;;;;;14.68;2.90;;;;;;;;;;5001857;28;25100;-76
2023/08/19 13:58:24;;;;;;;15.90;3.30;;;;;;;;;;5007246;28;25116;-75
2023/08/19 14:00:50;;;;;;;12.30;2.90;;;;;;;;;;5018563;28;25070;-76
2023/08/19 14:03:18;;;;;;;15.10;3.28;;;;;;;;;;4997020;28;25072;-78
2023/08/19 14:05:44;;;;;;;11.98;2.80;;;;;;;;;;5010417;28;25144;-78
2023/08/19 14:08:10;;;;;;;9.60;2.58;;;;;;;;;;5012427;28;25052;-77
2023/08/19 14:10:37;;;;;;;14.27;3.40;;;;;;;;;;5005102;28;25059;-77
2023/08/19 14:13:03;;;;;;;13.43;3.40;;;;;;;;;;5005924;28;25124;-78
2023/08/19 14:15:29;;;;;;;12.85;3.42;;;;;;;;;;5006029;28;25073;-75
2023/08/19 14:17:55;;;;;;;20.42;3.15;;;;;;;;;;5018713;28;25062;-77
2023/08/19 14:20:22;;;;;;;13.15;3.00;;;;;;;;;;5026866;28;25057;-78
2023/08/19 14:22:48;;;;;;;17.48;2.72;;;;;;;;;;5013241;28;25062;-77